createdAt,value
2018-06-09T00:00:24.205Z,20.60
2018-06-09T00:02:54.329Z,17.70
2018-06-09T00:05:24.481Z,20.53
2018-06-09T00:07:54.577Z,20.97
2018-06-09T00:10:24.758Z,19.17
2018-06-09T00:12:54.856Z,19.70
2018-06-09T00:15:24.994Z,18.70
2018-06-09T00:17:55.063Z,23.53
2018-06-09T00:20:25.185Z,15.07
2018-06-09T00:22:55.272Z,19.20
2018-06-09T00:25:24.987Z,19.03
2018-06-09T00:27:55.050Z,17.83
2018-06-09T00:30:25.197Z,19.80
2018-06-09T00:32:55.321Z,17.57
2018-06-09T00:35:25.451Z,18.33
2018-06-09T00:37:55.615Z,17.57
2018-06-09T00:40:25.800Z,17.17
2018-06-09T00:42:56.010Z,23.23
2018-06-09T00:45:26.203Z,15.83
2018-06-09T00:47:56.370Z,17.90
2018-06-09T00:50:26.602Z,17.60
2018-06-09T00:52:56.676Z,17.23
2018-06-09T00:55:26.795Z,16.43
2018-06-09T00:57:56.873Z,18.50
2018-06-09T01:00:26.950Z,18.40
2018-06-09T01:02:57.119Z,17.10
2018-06-09T01:05:27.296Z,20.60
2018-06-09T01:07:57.464Z,17.87
2018-06-09T01:10:27.611Z,18.37
2018-06-09T01:12:57.727Z,16.07
2018-06-09T01:15:27.912Z,16.23
2018-06-09T01:17:58.111Z,16.30
2018-06-09T01:20:28.429Z,19.57
2018-06-09T01:22:58.566Z,16.37
2018-06-09T01:25:28.294Z,13.80
2018-06-09T01:27:58.443Z,15.33
2018-06-09T01:30:28.573Z,15.87
2018-06-09T01:32:58.650Z,15.37
2018-06-09T01:35:28.817Z,15.23
2018-06-09T01:37:58.949Z,18.77
2018-06-09T01:40:29.051Z,16.90
2018-06-09T01:42:59.166Z,14.47
2018-06-09T01:45:29.284Z,14.33
2018-06-09T01:47:59.428Z,15.13
2018-06-09T01:50:29.569Z,13.30
2018-06-09T01:52:59.651Z,15.27
2018-06-09T01:55:29.867Z,16.03
2018-06-09T01:57:59.972Z,14.73
2018-06-09T02:00:30.126Z,16.23
2018-06-09T02:03:00.309Z,18.53
2018-06-09T02:05:30.442Z,14.23
2018-06-09T02:08:00.646Z,14.97
2018-06-09T02:10:30.769Z,19.03
2018-06-09T02:13:00.950Z,17.23
2018-06-09T02:15:31.132Z,19.73
2018-06-09T02:18:01.248Z,15.77
2018-06-09T02:20:31.470Z,15.90
2018-06-09T02:23:01.666Z,16.77
2018-06-09T02:25:31.886Z,16.20
2018-06-09T02:28:02.062Z,18.30
2018-06-09T02:30:32.199Z,20.00
2018-06-09T02:33:02.319Z,16.27
2018-06-09T02:35:32.609Z,13.67
2018-06-09T02:38:02.866Z,15.20
2018-06-09T02:40:33.093Z,15.20
2018-06-09T02:43:03.470Z,15.30
2018-06-09T02:45:33.605Z,12.20
2018-06-09T02:48:03.857Z,12.97
2018-06-09T02:50:34.014Z,13.77
2018-06-09T02:53:04.272Z,14.23
2018-06-09T02:55:34.505Z,16.03
2018-06-09T02:58:04.806Z,14.73
2018-06-09T03:00:34.948Z,14.80
2018-06-09T03:03:07.299Z,14.17
2018-06-09T03:05:43.119Z,18.67
2018-06-09T03:08:13.829Z,16.10
2018-06-09T03:10:43.887Z,13.70
2018-06-09T03:13:14.043Z,19.73
2018-06-09T03:15:55.576Z,14.60
2018-06-09T03:18:57.189Z,11.97
2018-06-09T03:21:27.398Z,15.77
2018-06-09T03:23:57.380Z,15.50
2018-06-09T03:26:27.443Z,19.40
2018-06-09T03:28:57.459Z,13.07
2018-06-09T03:31:27.526Z,14.77
2018-06-09T03:33:57.562Z,14.30
2018-06-09T03:36:27.670Z,12.20
2018-06-09T03:38:57.710Z,15.27
2018-06-09T03:41:27.808Z,16.80
2018-06-09T03:43:57.875Z,16.07
2018-06-09T03:46:28.097Z,14.50
2018-06-09T03:48:58.080Z,15.30
2018-06-09T03:51:28.088Z,14.80
2018-06-09T03:53:58.112Z,14.83
2018-06-09T03:56:28.195Z,11.90
2018-06-09T03:58:58.170Z,11.07
2018-06-09T04:01:28.118Z,12.57
2018-06-09T04:03:58.123Z,13.13
2018-06-09T04:06:28.119Z,12.80
2018-06-09T04:08:58.197Z,13.33
2018-06-09T04:11:28.235Z,13.30
2018-06-09T04:13:58.376Z,13.87
2018-06-09T04:16:28.459Z,12.90
2018-06-09T04:18:58.495Z,11.37
2018-06-09T04:21:28.486Z,16.10
2018-06-09T04:23:58.404Z,10.83
2018-06-09T04:26:28.453Z,11.50
2018-06-09T04:28:58.489Z,10.70
2018-06-09T04:31:28.559Z,11.47
2018-06-09T04:33:58.610Z,13.33
2018-06-09T04:36:28.552Z,15.87
2018-06-09T04:38:58.528Z,10.97
2018-06-09T04:41:28.587Z,12.70
2018-06-09T04:43:58.498Z,12.10
2018-06-09T04:46:28.460Z,11.77
2018-06-09T04:48:58.442Z,11.60
2018-06-09T04:51:28.426Z,9.93
2018-06-09T04:53:58.431Z,13.73
2018-06-09T04:56:28.443Z,11.77
2018-06-09T04:58:58.400Z,13.33
2018-06-09T05:01:28.415Z,10.50
2018-06-09T05:03:58.486Z,12.03
2018-06-09T05:06:28.612Z,12.63
2018-06-09T05:08:58.646Z,11.67
2018-06-09T05:11:28.650Z,14.40
2018-06-09T05:13:58.633Z,14.83
2018-06-09T05:16:28.637Z,13.00
2018-06-09T05:18:58.683Z,11.40
2018-06-09T05:21:28.677Z,15.17
2018-06-09T05:23:58.863Z,14.10
2018-06-09T05:26:28.798Z,14.57
2018-06-09T05:28:58.856Z,12.70
2018-06-09T05:31:28.486Z,11.10
2018-06-09T05:33:58.618Z,13.87
2018-06-09T05:36:28.651Z,12.57
2018-06-09T05:38:58.675Z,12.33
2018-06-09T05:41:28.612Z,15.70
2018-06-09T05:43:58.691Z,12.90
2018-06-09T05:46:28.728Z,12.73
2018-06-09T05:48:58.743Z,14.20
2018-06-09T05:51:28.759Z,11.47
2018-06-09T05:53:58.764Z,12.37
2018-06-09T05:56:28.791Z,17.33
2018-06-09T05:58:58.850Z,11.87
2018-06-09T06:01:28.918Z,13.47
2018-06-09T06:03:59.021Z,16.30
2018-06-09T06:06:29.018Z,11.73
2018-06-09T06:08:58.649Z,11.50
2018-06-09T06:11:28.620Z,12.03
2018-06-09T06:13:58.631Z,11.97
2018-06-09T06:16:28.757Z,11.40
2018-06-09T06:18:58.761Z,15.23
2018-06-09T06:21:28.870Z,12.90
2018-06-09T06:23:58.881Z,14.53
2018-06-09T06:26:28.809Z,13.30
2018-06-09T06:28:58.873Z,12.33
2018-06-09T06:31:28.957Z,14.80
2018-06-09T06:33:58.958Z,13.27
2018-06-09T06:36:28.994Z,14.83
2018-06-09T06:38:58.968Z,13.67
2018-06-09T06:41:28.986Z,12.67
2018-06-09T06:43:59.201Z,15.87
2018-06-09T06:46:29.333Z,12.47
2018-06-09T06:48:59.393Z,16.83
2018-06-09T06:51:29.479Z,16.90
2018-06-09T06:53:59.500Z,14.23
2018-06-09T06:56:29.538Z,13.57
2018-06-09T06:58:59.690Z,15.70
2018-06-09T07:01:29.755Z,12.00
2018-06-09T07:04:00.280Z,12.97
2018-06-09T07:06:30.286Z,13.60
2018-06-09T07:09:00.324Z,12.90
2018-06-09T07:11:30.325Z,13.77
2018-06-09T07:14:00.473Z,15.37
2018-06-09T07:16:30.548Z,13.27
2018-06-09T07:19:00.640Z,16.37
2018-06-09T07:21:31.341Z,14.33
2018-06-09T07:24:01.462Z,12.67
2018-06-09T07:26:31.594Z,15.67
2018-06-09T07:29:01.827Z,13.27
2018-06-09T07:31:31.949Z,13.83
2018-06-09T07:34:01.650Z,12.57
2018-06-09T07:36:32.304Z,14.70
2018-06-09T07:39:02.170Z,11.97
2018-06-09T07:41:32.667Z,13.50
2018-06-09T07:44:02.930Z,11.40
2018-06-09T07:46:32.864Z,16.77
2018-06-09T07:49:02.931Z,13.80
2018-06-09T07:51:32.920Z,13.20
2018-06-09T07:54:03.025Z,14.73
2018-06-09T07:56:32.686Z,13.55
2018-06-09T07:59:02.770Z,12.18
2018-06-09T08:01:32.851Z,12.60
2018-06-09T08:04:14.406Z,15.85
2018-06-09T08:07:35.053Z,13.80
2018-06-09T08:10:06.215Z,13.28
2018-06-09T09:39:46.449Z,18.25
2018-06-09T09:45:22.716Z,14.73
2018-06-09T10:07:09.080Z,14.00
2018-06-09T10:09:41.521Z,16.62
2018-06-09T10:12:12.017Z,18.02
2018-06-09T10:14:42.303Z,18.90
2018-06-09T10:17:11.928Z,16.77
2018-06-09T10:19:43.106Z,13.62
2018-06-09T10:22:13.347Z,16.80
2018-06-09T10:24:47.382Z,17.07
2018-06-09T10:27:17.039Z,17.23
2018-06-09T10:29:47.059Z,18.57
2018-06-09T10:32:17.035Z,18.37
2018-06-09T10:34:51.937Z,17.17
2018-06-09T10:37:22.061Z,16.23
2018-06-09T10:39:52.082Z,18.42
2018-06-09T10:42:22.119Z,18.05
2018-06-09T10:44:52.189Z,16.73
2018-06-09T10:47:22.195Z,16.90
2018-06-09T10:49:52.248Z,18.60
2018-06-09T10:52:24.476Z,18.12
2018-06-09T10:54:54.636Z,20.43
2018-06-09T10:57:24.735Z,18.80
2018-06-09T10:59:54.879Z,18.52
2018-06-09T11:02:25.053Z,16.17
2018-06-09T11:04:55.124Z,18.35
2018-06-09T11:07:25.195Z,21.90
2018-06-09T11:09:55.292Z,17.90
2018-06-09T11:12:25.322Z,16.23
2018-06-09T11:14:55.396Z,17.98
2018-06-09T11:19:04.523Z,18.55
2018-06-09T11:21:34.981Z,15.08
2018-06-09T11:24:05.257Z,17.67
2018-06-09T11:26:35.705Z,18.67
2018-06-09T11:29:06.790Z,17.30
2018-06-09T11:32:07.579Z,17.92
2018-06-09T11:34:37.570Z,19.17
2018-06-09T11:37:07.657Z,20.90
2018-06-09T11:39:37.749Z,20.35
2018-06-09T11:42:07.864Z,21.40
2018-06-09T11:44:37.888Z,16.07
2018-06-09T11:47:15.920Z,16.48
2018-06-09T11:49:46.207Z,21.05
2018-06-09T11:52:16.316Z,17.75
2018-06-09T11:54:46.953Z,21.65
2018-06-09T11:57:17.060Z,18.52
2018-06-09T11:59:47.229Z,18.25
2018-06-09T12:02:17.290Z,16.35
2018-06-09T12:04:47.487Z,17.60
2018-06-09T12:07:17.656Z,18.07
2018-06-09T12:09:47.710Z,22.62
2018-06-09T12:12:17.805Z,17.90
2018-06-09T12:14:55.319Z,20.95
2018-06-09T12:17:25.473Z,18.00
2018-06-09T12:19:55.505Z,17.17
2018-06-09T12:22:25.639Z,18.32
2018-06-09T12:24:55.830Z,18.45
2018-06-09T12:27:26.010Z,21.77
2018-06-09T12:29:56.060Z,17.23
2018-06-09T12:32:26.143Z,16.60
2018-06-09T12:34:56.345Z,18.20
2018-06-09T12:37:26.658Z,17.48
2018-06-09T12:39:56.652Z,14.80
2018-06-09T12:42:26.801Z,21.80
2018-06-09T12:44:56.827Z,18.52
2018-06-09T12:47:26.920Z,23.57
2018-06-09T12:49:56.934Z,18.70
2018-06-09T12:52:26.952Z,14.07
2018-06-09T12:54:57.054Z,16.37
2018-06-09T12:57:27.167Z,18.87
2018-06-09T12:59:57.160Z,15.72
2018-06-09T13:02:28.131Z,20.43
2018-06-09T13:04:58.251Z,20.85
2018-06-09T13:07:28.367Z,18.27
2018-06-09T13:09:58.461Z,18.40
2018-06-09T13:12:28.570Z,19.27
2018-06-09T13:14:58.658Z,20.62
2018-06-09T13:17:28.801Z,16.37
2018-06-09T13:19:58.829Z,15.40
2018-06-09T13:22:28.935Z,15.90
2018-06-09T13:24:59.039Z,18.70
2018-06-09T13:27:31.753Z,18.42
2018-06-09T13:30:01.834Z,18.48
2018-06-09T13:32:32.013Z,16.25
2018-06-09T13:35:02.203Z,19.98
2018-06-09T13:37:32.548Z,15.85
2018-06-09T13:40:02.769Z,18.17
2018-06-09T13:42:32.800Z,17.02
2018-06-09T13:45:02.961Z,16.75
2018-06-09T13:47:33.251Z,17.65
2018-06-09T13:50:03.268Z,17.75
2018-06-09T13:52:33.414Z,18.85
2018-06-09T13:55:09.609Z,12.37
2018-06-09T13:57:39.782Z,14.90
2018-06-09T14:00:10.030Z,17.00
2018-06-09T14:02:40.078Z,13.60
2018-06-09T14:05:10.210Z,15.50
2018-06-09T14:07:40.104Z,12.75
2018-06-09T14:10:10.241Z,12.37
2018-06-09T14:12:40.326Z,16.07
2018-06-09T14:15:10.540Z,14.98
2018-06-09T14:17:40.757Z,16.90
2018-06-09T14:20:11.870Z,14.93
2018-06-09T14:22:41.483Z,13.85
2018-06-09T14:25:11.228Z,16.02
2018-06-09T14:27:41.539Z,17.98
2018-06-09T14:30:11.980Z,12.53
2018-06-09T14:32:42.325Z,14.40
2018-06-09T14:35:12.471Z,16.10
2018-06-09T14:37:42.633Z,17.02
2018-06-09T14:40:12.779Z,15.50
2018-06-09T14:42:43.147Z,18.60
2018-06-09T14:45:13.204Z,14.68
2018-06-09T14:47:43.559Z,19.57
2018-06-09T14:50:13.735Z,14.73
2018-06-09T14:52:43.906Z,15.45
2018-06-09T14:55:14.028Z,13.35
2018-06-09T14:57:44.041Z,16.67
2018-06-09T15:00:14.058Z,17.02
2018-06-09T15:02:44.200Z,15.23
2018-06-09T15:05:14.271Z,17.23
2018-06-09T15:07:44.399Z,16.48
2018-06-09T15:10:14.479Z,19.65
2018-06-09T15:12:45.211Z,16.82
2018-06-09T15:15:15.341Z,13.78
2018-06-09T15:17:45.439Z,18.07
2018-06-09T15:20:15.490Z,15.00
2018-06-09T15:22:45.581Z,15.72
2018-06-09T15:25:15.670Z,16.85
2018-06-09T15:27:45.861Z,16.30
2018-06-09T15:30:16.036Z,17.10
2018-06-09T15:32:46.114Z,14.15
2018-06-09T15:35:16.247Z,17.73
2018-06-09T15:37:46.329Z,16.48
2018-06-09T15:40:16.358Z,16.95
2018-06-09T15:42:46.451Z,15.40
2018-06-09T15:45:16.622Z,16.32
2018-06-09T15:47:46.690Z,15.72
2018-06-09T15:50:16.712Z,16.90
2018-06-09T15:52:46.738Z,15.53
2018-06-09T15:55:16.761Z,17.65
2018-06-09T15:57:46.831Z,15.15
2018-06-09T16:00:16.862Z,16.42
2018-06-09T16:02:46.861Z,14.78
2018-06-09T16:05:16.926Z,16.07
2018-06-09T16:07:47.001Z,16.62
2018-06-09T16:10:17.051Z,17.70
2018-06-09T16:12:47.092Z,14.68
2018-06-09T16:15:17.131Z,13.80
2018-06-09T16:17:47.208Z,17.80
2018-06-09T16:20:17.249Z,13.60
2018-06-09T16:22:47.232Z,14.63
2018-06-09T16:25:17.333Z,14.75
2018-06-09T16:27:47.408Z,18.48
2018-06-09T16:30:17.397Z,15.75
2018-06-09T16:32:47.508Z,14.45
2018-06-09T16:35:17.483Z,15.55
2018-06-09T16:37:47.518Z,16.45
2018-06-09T16:40:17.610Z,15.48
2018-06-09T16:42:47.660Z,16.12
2018-06-09T16:45:17.722Z,15.75
2018-06-09T16:47:47.833Z,17.30
2018-06-09T16:50:17.886Z,17.25
2018-06-09T16:52:47.867Z,17.23
2018-06-09T16:55:17.923Z,18.07
2018-06-09T16:57:47.890Z,17.85
2018-06-09T17:00:17.917Z,17.82
2018-06-09T17:02:47.931Z,17.62
2018-06-09T17:05:18.008Z,20.08
2018-06-09T17:07:47.968Z,16.48
2018-06-09T17:10:18.131Z,16.25
2018-06-09T17:12:48.171Z,16.42
2018-06-09T17:15:18.239Z,17.17
2018-06-09T17:17:48.389Z,17.52
2018-06-09T17:20:18.367Z,21.75
2018-06-09T17:22:48.528Z,20.72
2018-06-09T17:25:18.564Z,16.95
2018-06-09T17:27:48.584Z,19.92
2018-06-09T17:30:18.638Z,17.85
2018-06-09T17:32:48.637Z,17.92
2018-06-09T17:35:18.677Z,16.07
2018-06-09T17:37:48.691Z,18.37
2018-06-09T17:40:18.703Z,19.48
2018-06-09T17:42:48.311Z,17.77
2018-06-09T17:45:18.260Z,19.80
2018-06-09T17:50:12.621Z,25.77
2018-06-09T17:52:42.601Z,18.32
2018-06-09T17:55:12.601Z,19.27
2018-06-09T17:57:42.610Z,17.82
2018-06-09T18:00:12.980Z,16.93
2018-06-09T18:02:43.098Z,18.80
2018-06-09T18:05:13.324Z,16.50
2018-06-09T18:07:43.372Z,16.77
2018-06-09T18:10:13.444Z,17.02
2018-06-09T18:12:43.555Z,16.17
2018-06-09T18:15:13.756Z,16.67
2018-06-09T18:17:43.856Z,17.17
2018-06-09T18:20:13.800Z,22.07
2018-06-09T18:22:43.996Z,19.70
2018-06-09T18:25:13.973Z,18.37
2018-06-09T18:27:44.052Z,21.42
2018-06-09T18:30:14.126Z,19.02
2018-06-09T18:32:44.191Z,19.75
2018-06-09T18:35:14.277Z,19.55
2018-06-09T18:37:43.967Z,19.07
2018-06-09T18:40:14.121Z,18.35
2018-06-09T18:42:44.149Z,17.20
2018-06-09T18:45:14.160Z,19.42
2018-06-09T18:47:44.250Z,19.73
2018-06-09T18:50:14.212Z,22.20
2018-06-09T18:52:44.361Z,19.77
2018-06-09T18:55:14.383Z,20.30
2018-06-09T18:57:44.703Z,22.82
2018-06-09T19:00:14.810Z,18.60
2018-06-09T19:02:44.863Z,18.85
2018-06-09T19:05:14.896Z,17.70
2018-06-09T19:07:44.966Z,17.98
2018-06-09T19:10:15.035Z,19.05
2018-06-09T19:12:45.057Z,16.52
2018-06-09T19:15:15.088Z,16.40
2018-06-09T19:17:45.085Z,19.07
2018-06-09T19:20:15.089Z,17.67
2018-06-09T19:22:45.161Z,16.50
2018-06-09T19:25:15.236Z,19.12
2018-06-09T19:27:45.322Z,17.42
2018-06-09T19:30:15.416Z,19.95
2018-06-09T19:32:45.459Z,17.57
2018-06-09T19:35:15.591Z,18.32
2018-06-09T19:37:45.645Z,18.65
2018-06-09T19:40:15.630Z,16.52
2018-06-09T19:42:45.667Z,17.20
2018-06-09T19:45:15.649Z,17.65
2018-06-09T19:47:45.717Z,18.17
2018-06-09T19:50:15.812Z,17.23
2018-06-09T19:52:45.821Z,18.80
2018-06-09T19:55:15.846Z,17.35
2018-06-09T19:57:45.897Z,17.27
2018-06-09T20:00:15.862Z,18.17
2018-06-09T20:02:45.934Z,16.65
2018-06-09T20:05:16.014Z,18.10
2018-06-09T20:07:46.081Z,13.68
2018-06-09T20:10:16.133Z,9.78
2018-06-09T20:12:46.251Z,7.10
2018-06-09T20:15:16.328Z,6.42
2018-06-09T20:17:46.760Z,7.17
2018-06-09T20:20:16.802Z,7.95
2018-06-09T20:22:46.805Z,4.40
2018-06-09T20:25:16.891Z,4.65
2018-06-09T20:27:46.519Z,4.20
2018-06-09T20:30:16.652Z,4.97
2018-06-09T20:32:46.720Z,4.28
2018-06-09T20:35:16.812Z,5.47
2018-06-09T20:37:46.923Z,6.47
2018-06-09T20:40:16.993Z,6.70
2018-06-09T20:42:47.173Z,8.45
2018-06-09T20:45:17.129Z,6.37
2018-06-09T20:47:47.161Z,7.75
2018-06-09T20:50:17.220Z,5.65
2018-06-09T20:52:47.211Z,7.67
2018-06-09T20:55:17.303Z,5.70
2018-06-09T20:57:47.277Z,6.37
2018-06-09T21:00:17.343Z,6.85
2018-06-09T21:02:47.339Z,5.50
2018-06-09T21:05:17.303Z,6.10
2018-06-09T21:07:47.349Z,9.60
2018-06-09T21:10:17.560Z,5.87
2018-06-09T21:12:47.846Z,6.75
2018-06-09T21:15:17.879Z,5.37
2018-06-09T21:17:47.946Z,8.15
2018-06-09T21:20:17.944Z,5.20
2018-06-09T21:22:48.007Z,5.92
2018-06-09T21:25:17.972Z,6.45
2018-06-09T21:27:53.002Z,6.17
2018-06-09T21:31:25.334Z,6.08
2018-06-09T21:34:06.384Z,5.53
2018-06-09T21:36:41.525Z,8.93
2018-06-09T21:39:16.540Z,10.60
2018-06-09T21:41:52.497Z,7.90
2018-06-09T21:44:27.705Z,5.87
2018-06-09T21:46:57.765Z,6.62
2018-06-09T21:49:27.892Z,8.80
2018-06-09T21:51:57.873Z,6.20
2018-06-09T21:54:27.984Z,6.65
2018-06-09T21:56:58.041Z,7.35
2018-06-09T21:59:28.138Z,6.05
2018-06-09T22:01:58.288Z,7.45
2018-06-09T22:04:28.322Z,6.60
2018-06-09T22:06:58.349Z,6.97
2018-06-09T22:09:28.817Z,8.25
2018-06-09T22:11:58.923Z,6.95
2018-06-09T22:14:28.953Z,7.05
2018-06-09T22:16:58.959Z,6.87
2018-06-09T22:19:29.340Z,6.80
2018-06-09T22:21:59.305Z,7.10
2018-06-09T22:24:29.420Z,9.70
2018-06-09T22:26:59.415Z,8.80
2018-06-09T22:29:29.473Z,7.70
2018-06-09T22:31:59.420Z,8.50
2018-06-09T22:34:29.452Z,7.67
2018-06-09T22:36:59.095Z,10.13
2018-06-09T22:39:29.120Z,8.68
2018-06-09T22:41:59.169Z,7.33
2018-06-09T22:44:29.281Z,8.18
2018-06-09T22:46:59.368Z,7.70
2018-06-09T22:49:29.414Z,7.63
2018-06-09T22:51:59.410Z,7.20
2018-06-09T22:54:29.501Z,6.97
2018-06-09T22:56:59.573Z,8.28
2018-06-09T22:59:29.560Z,9.88
2018-06-09T23:01:59.557Z,8.17
2018-06-09T23:04:29.569Z,7.72
2018-06-09T23:06:59.564Z,7.22
2018-06-09T23:09:29.524Z,7.85
2018-06-09T23:12:00.130Z,8.47
2018-06-09T23:14:30.160Z,8.95
2018-06-09T23:17:00.181Z,9.98
2018-06-09T23:19:30.170Z,7.80
2018-06-09T23:22:00.289Z,7.80
2018-06-09T23:24:30.286Z,8.08
2018-06-09T23:27:00.320Z,8.63
2018-06-09T23:29:30.257Z,9.50
2018-06-09T23:31:59.861Z,8.70
2018-06-09T23:34:29.776Z,10.80
2018-06-09T23:36:59.769Z,8.47
2018-06-09T23:39:29.719Z,8.63
2018-06-09T23:41:59.668Z,9.50
2018-06-09T23:44:29.684Z,8.17
2018-06-09T23:46:59.636Z,8.47
2018-06-09T23:49:29.673Z,9.53
2018-06-09T23:51:59.210Z,9.03
2018-06-09T23:54:29.162Z,8.40
2018-06-09T23:56:59.224Z,9.20
2018-06-09T23:59:29.093Z,10.73
